This is the latest recevied weather packets stored in our database for station/object W9PEM-13. If no packets are shown the sender has not sent any weather packets the latest 1 day(s).
| Time | Temp. | Humidity | Pressure | Rain* | Wind** | Luminosity | Snow |
|---|---|---|---|---|---|---|---|
| 1778041943 | 4.44° C | 68% | 980.7 hPa | 0 mm | - | 0 W/m² | - |
| 1778041749 | 4.44° C | 68% | 980.7 hPa | 0 mm | - | 0 W/m² | - |
| 1778037058 | 6.11° C | 58% | 980.4 hPa | 0 mm | - | 0 W/m² | - |
| 1778036949 | 6.11° C | 58% | 980.4 hPa | 0 mm | - | 0 W/m² | - |
| 1778036037 | 6.67° C | 54% | 980.4 hPa | 0 mm | - | 0 W/m² | - |
| 1778033719 | 7.78° C | 48% | 979.9 hPa | 0 mm | - | 0 W/m² | - |
| 1778033348 | 8.33° C | 48% | 979.8 hPa | 0 mm | - | 0 W/m² | - |
| 1778032244 | 8.89° C | 47% | 979.3 hPa | 0 mm | - | 0 W/m² | - |
| 1778031214 | 8.89° C | 47% | 979 hPa | 0 mm | - | 0 W/m² | - |
| 1778030937 | 9.44° C | 46% | 978.8 hPa | 0 mm | - | 0 W/m² | - |
| 1778030848 | 9.44° C | 46% | 978.8 hPa | 0 mm | - | 0 W/m² | - |
| 1778030613 | 9.44° C | 46% | 978.8 hPa | 0 mm | - | 0 W/m² | - |
| 1778030337 | 10° C | 43% | 978.8 hPa | 0 mm | - | 0 W/m² | - |
| 1778029484 | 10° C | 42% | 978.6 hPa | 0 mm | - | 2 W/m² | - |
| 1778029413 | 10° C | 42% | 978.6 hPa | 0 mm | - | 2 W/m² | - |
| 1778028847 | 10.56° C | 41% | 978.5 hPa | 0 mm | - | 4 W/m² | - |
| 1778028813 | 10.56° C | 41% | 978.5 hPa | 0 mm | - | 4 W/m² | - |
| 1778028492 | 10.56° C | 40% | 978.3 hPa | 0 mm | - | 9 W/m² | - |
| 1778027647 | 10.56° C | 39% | 978.2 hPa | 0 mm | - | 20 W/m² | - |
| 1778027051 | 11.11° C | 38% | 978.2 hPa | 0 mm | - | 32 W/m² | - |
| 1778027013 | 11.11° C | 38% | 978.2 hPa | 0 mm | - | 32 W/m² | - |
| 1778026727 | 11.11° C | 38% | 978.1 hPa | 0 mm | - | 42 W/m² | - |
| 1778022813 | 12.22° C | 35% | 978 hPa | 0 mm | - | 173 W/m² | - |
| 1778022213 | 12.78° C | 37% | 978 hPa | 0 mm | - | 177 W/m² | - |
| 1778021938 | 12.78° C | 36% | 977.9 hPa | 0 mm | - | 190 W/m² | - |
* Rain latest hour (hover to see other rain measurements)
** Current wind speed in m/s (hover to see current wind gust speed)